Time;durP1;ratioP1;P1;durP2;ratioP2;P2;SDS_P1;SDS_P2;PMS_P1;PMS_P2;Temp;Humidity;BMP_temperature;BMP_pressure;BME280_temperature;BME280_humidity;BME280_pressure;Samples;Min_cycle;Max_cycle;Signal;HPM_P1;HPM_P2
2023/01/18 00:00:58;;;;;;;5.20;1.53;;;0.80;99.90;;;;;;5048927;28;20108;-93
2023/01/18 00:03:24;;;;;;;4.27;1.70;;;0.80;99.90;;;;;;5048747;28;20786;-93
2023/01/18 00:05:53;;;;;;;4.37;1.23;;;1.10;99.90;;;;;;5053599;28;20029;-93
2023/01/18 00:08:19;;;;;;;4.40;1.77;;;0.80;99.90;;;;;;5044397;28;20038;-92
2023/01/18 00:10:47;;;;;;;4.50;1.47;;;0.90;99.90;;;;;;5049339;28;20021;-92
2023/01/18 00:13:13;;;;;;;5.17;1.73;;;1.00;99.90;;;;;;5053672;28;20033;-93
2023/01/18 00:15:39;;;;;;;4.83;1.57;;;1.00;99.90;;;;;;5054902;28;20029;-93
2023/01/18 00:18:06;;;;;;;5.03;1.67;;;1.10;99.90;;;;;;5052688;28;20087;-93
2023/01/18 00:20:32;;;;;;;4.73;1.60;;;1.00;99.90;;;;;;5051667;28;20498;-93
2023/01/18 00:23:01;;;;;;;4.80;1.53;;;1.10;99.90;;;;;;5056022;28;20029;-93
2023/01/18 00:25:27;;;;;;;3.27;1.13;;;0.90;99.90;;;;;;5042793;28;20095;-92
2023/01/18 00:27:54;;;;;;;2.83;1.30;;;0.90;99.90;;;;;;5048870;28;20034;-93
2023/01/18 00:30:22;;;;;;;4.10;1.43;;;1.00;99.90;;;;;;5054645;28;20079;-93
2023/01/18 00:32:52;;;;;;;4.53;1.57;;;0.90;99.90;;;;;;5039089;28;20029;-92
2023/01/18 00:35:20;;;;;;;4.03;1.40;;;0.90;99.90;;;;;;5040270;28;20029;-93
2023/01/18 00:37:47;;;;;;;5.23;1.83;;;1.20;99.90;;;;;;5046954;28;20029;-92
2023/01/18 00:40:17;;;;;;;4.43;1.40;;;0.90;99.90;;;;;;5052527;28;20017;-92
2023/01/18 00:45:27;;;;;;;5.70;1.93;;;1.00;99.90;;;;;;5059369;28;20036;-93
2023/01/18 00:47:53;;;;;;;3.50;1.50;;;1.00;99.90;;;;;;5044735;28;20029;-93
2023/01/18 00:50:19;;;;;;;3.40;1.13;;;1.10;99.90;;;;;;5050516;28;20041;-93
2023/01/18 00:52:46;;;;;;;3.23;1.20;;;0.80;99.90;;;;;;5053884;28;20029;-93
2023/01/18 00:55:13;;;;;;;2.63;0.90;;;0.70;99.90;;;;;;5047262;28;20031;-93
2023/01/18 00:57:39;;;;;;;6.27;1.30;;;0.90;99.90;;;;;;5071069;28;20066;-93
2023/01/18 01:00:08;;;;;;;3.93;1.33;;;1.10;99.90;;;;;;5056658;28;20403;-91
2023/01/18 01:02:40;;;;;;;4.93;1.50;;;0.90;99.90;;;;;;5059863;28;20027;-93
2023/01/18 01:08:03;;;;;;;3.97;1.37;;;0.90;99.90;;;;;;5061606;28;20074;-92
2023/01/18 01:10:29;;;;;;;3.47;1.37;;;0.90;99.90;;;;;;5045707;28;20029;-92
2023/01/18 01:26:36;;;;;;;6.17;1.93;;;1.00;99.90;;;;;;5047171;28;20055;-93
2023/01/18 01:29:02;;;;;;;6.73;2.17;;;1.00;99.90;;;;;;5056787;28;20033;-92
2023/01/18 01:31:27;;;;;;;4.30;1.80;;;1.00;99.90;;;;;;5055190;28;20017;-93
2023/01/18 01:33:53;;;;;;;6.13;2.10;;;1.10;99.90;;;;;;5064455;28;20051;-91
2023/01/18 01:36:26;;;;;;;4.27;1.73;;;0.90;99.90;;;;;;5047737;28;20070;-92
2023/01/18 01:38:52;;;;;;;5.53;2.37;;;1.60;99.90;;;;;;5072213;28;20116;-92
2023/01/18 01:41:25;;;;;;;6.93;2.07;;;1.10;99.90;;;;;;5073559;28;20017;-92
2023/01/18 01:43:52;;;;;;;5.43;1.97;;;0.90;99.90;;;;;;5075418;28;20017;-92
2023/01/18 01:46:40;;;;;;;6.07;2.00;;;0.90;99.90;;;;;;5052497;28;21141;-92
2023/01/18 01:49:40;;;;;;;5.17;1.80;;;0.70;99.90;;;;;;5059862;28;20111;-90
2023/01/18 01:52:14;;;;;;;4.40;1.80;;;0.90;99.90;;;;;;5062757;28;20069;-92
2023/01/18 01:54:54;;;;;;;4.37;1.93;;;0.90;99.90;;;;;;5053591;28;20089;-92
2023/01/18 01:57:24;;;;;;;4.07;1.87;;;0.90;99.90;;;;;;5056177;28;20055;-92
2023/01/18 02:00:01;;;;;;;4.33;1.87;;;0.90;99.90;;;;;;5063312;28;20025;-91
2023/01/18 02:02:29;;;;;;;4.67;1.70;;;0.90;99.90;;;;;;5053905;28;20021;-92
2023/01/18 02:04:57;;;;;;;5.00;1.87;;;0.90;99.90;;;;;;5049134;28;20140;-91
2023/01/18 02:07:27;;;;;;;5.97;1.90;;;0.90;99.90;;;;;;5064918;28;20067;-92
2023/01/18 02:09:55;;;;;;;4.93;1.67;;;0.90;99.90;;;;;;5050353;28;20021;-93
2023/01/18 02:12:21;;;;;;;6.43;2.10;;;1.10;99.90;;;;;;5054267;28;20032;-93
2023/01/18 02:14:46;;;;;;;5.77;2.43;;;0.80;99.90;;;;;;5057532;28;20021;-92
2023/01/18 02:17:35;;;;;;;5.17;1.70;;;0.90;99.90;;;;;;5052257;28;20463;-93
2023/01/18 02:20:18;;;;;;;4.97;2.23;;;0.90;99.90;;;;;;5052775;28;20484;-92
2023/01/18 02:22:47;;;;;;;4.50;1.75;;;1.00;99.90;;;;;;5055577;28;20017;-92
2023/01/18 02:25:50;;;;;;;7.50;2.87;;;1.00;99.90;;;;;;5060016;28;20610;-93
2023/01/18 02:28:21;;;;;;;5.30;1.60;;;1.00;99.90;;;;;;5046604;28;20033;-92
2023/01/18 02:31:17;;;;;;;5.77;1.93;;;0.80;99.90;;;;;;5057696;28;20031;-92
2023/01/18 02:33:49;;;;;;;4.47;1.50;;;1.10;99.90;;;;;;5045317;28;20500;-92
2023/01/18 02:36:30;;;;;;;4.67;1.97;;;0.90;99.90;;;;;;5045765;28;20492;-93
2023/01/18 02:39:04;;;;;;;5.27;2.03;;;1.00;99.90;;;;;;5052762;28;20362;-91
2023/01/18 02:47:28;;;;;;;6.17;2.03;;;0.90;99.90;;;;;;5057392;28;20695;-92
2023/01/18 02:49:57;;;;;;;6.27;2.30;;;0.80;99.90;;;;;;5050765;28;20110;-93
2023/01/18 02:52:52;;;;;;;4.53;1.80;;;0.80;99.90;;;;;;5060552;28;20021;-91
2023/01/18 02:55:42;;;;;;;5.43;1.93;;;1.10;99.90;;;;;;5037592;28;20021;-92
2023/01/18 02:58:14;;;;;;;5.37;1.73;;;0.80;99.90;;;;;;5040326;28;20125;-92
2023/01/18 03:00:46;;;;;;;6.63;2.08;;;0.90;99.90;;;;;;5036199;28;20056;-91
2023/01/18 03:03:13;;;;;;;6.27;1.37;;;0.80;99.90;;;;;;5039146;28;20405;-92
2023/01/18 03:05:41;;;;;;;5.60;2.20;;;0.80;99.90;;;;;;5053291;28;20018;-92
2023/01/18 03:08:50;;;;;;;6.97;2.70;;;0.80;99.90;;;;;;5054786;28;20485;-92
2023/01/18 03:11:34;;;;;;;5.93;1.87;;;0.80;99.90;;;;;;5048926;28;20065;-92
2023/01/18 03:14:15;;;;;;;5.40;1.90;;;0.80;99.90;;;;;;5042650;28;21389;-94
2023/01/18 03:16:56;;;;;;;7.20;2.13;;;0.80;99.90;;;;;;5070745;28;20052;-92
2023/01/18 03:25:24;;;;;;;7.53;2.20;;;0.70;99.90;;;;;;5052529;28;20089;-91
2023/01/18 06:52:48;;;;;;;2.87;1.00;;;0.20;99.90;;;;;;4237847;22;20049;-90
2023/01/18 06:55:15;;;;;;;2.87;0.63;;;0.30;99.90;;;;;;5047809;28;20025;-89
2023/01/18 06:57:41;;;;;;;3.23;0.83;;;0.20;99.90;;;;;;5035405;28;20030;-90
2023/01/18 07:00:19;;;;;;;3.60;0.77;;;0.40;99.90;;;;;;5051061;28;20005;-90
2023/01/18 07:02:58;;;;;;;2.73;1.20;;;0.20;99.90;;;;;;5055890;28;20017;-90
2023/01/18 07:05:32;;;;;;;4.17;1.20;;;0.30;99.90;;;;;;5052825;28;20006;-90
2023/01/18 07:08:06;;;;;;;3.10;0.67;;;0.20;99.90;;;;;;5048994;28;20038;-89
2023/01/18 07:10:55;;;;;;;3.27;1.00;;;0.20;99.90;;;;;;5044959;28;20029;-89
2023/01/18 07:13:52;;;;;;;3.03;1.10;;;0.20;99.90;;;;;;5056338;28;20025;-89
2023/01/18 07:16:34;;;;;;;3.13;1.20;;;0.10;99.90;;;;;;5049652;28;20028;-89
2023/01/18 07:19:09;;;;;;;4.70;1.40;;;0.20;99.90;;;;;;5041383;28;20050;-89
2023/01/18 07:21:53;;;;;;;4.93;1.80;;;0.20;99.90;;;;;;5042912;28;20056;-90
2023/01/18 07:24:27;;;;;;;4.23;1.60;;;0.30;99.90;;;;;;5054110;28;20061;-90
2023/01/18 07:26:59;;;;;;;3.97;1.80;;;0.30;99.90;;;;;;5047170;28;20033;-89
2023/01/18 07:29:45;;;;;;;3.75;1.60;;;0.20;99.90;;;;;;5038108;28;20072;-90
2023/01/18 07:35:23;;;;;;;4.47;1.00;;;0.20;99.90;;;;;;5151919;22;20055;-91
2023/01/18 07:41:31;;;;;;;4.17;1.37;;;0.30;99.90;;;;;;5000747;28;20568;-91
2023/01/18 07:44:09;;;;;;;3.00;1.07;;;0.20;99.90;;;;;;4980836;28;20027;-91
2023/01/18 07:46:53;;;;;;;4.23;1.57;;;0.40;99.90;;;;;;4978374;28;20030;-90
2023/01/18 07:49:45;;;;;;;3.77;0.90;;;0.30;99.90;;;;;;5038283;28;20029;-90
2023/01/18 07:52:24;;;;;;;;;;;;;;;;;;;;;
2023/01/18 07:54:57;;;;;;;3.47;1.40;;;0.40;99.90;;;;;;5056679;28;20108;-91
2023/01/18 07:57:54;;;;;;;3.07;1.00;;;0.40;99.90;;;;;;5046085;28;20021;-91
2023/01/18 08:00:36;;;;;;;3.27;0.90;;;0.50;99.90;;;;;;5051122;28;20021;-91
2023/01/18 09:21:36;;;;;;;2.50;1.10;;;1.10;99.90;;;;;;907987;26;20327;-90
2023/01/18 09:28:26;;;;;;;4.57;1.13;;;1.30;99.90;;;;;;4969421;28;20474;-87
2023/01/18 09:31:25;;;;;;;3.57;1.40;;;1.20;99.90;;;;;;4934910;29;20051;-91
2023/01/18 09:38:17;;;;;;;;;;;;;;;;;;;;;
2023/01/18 09:41:45;;;;;;;;;;;;;;;;;;;;;
2023/01/18 10:03:07;;;;;;;1.37;0.60;;;1.20;99.90;;;;;;4771651;30;20040;-91
2023/01/18 10:10:18;;;;;;;1.33;0.47;;;1.30;99.90;;;;;;4827871;29;20494;-92
2023/01/18 10:26:35;;;;;;;2.00;0.90;;;1.40;99.90;;;;;;5601844;22;20053;-91
2023/01/18 10:30:11;;;;;;;4.67;0.77;;;1.50;99.90;;;;;;5006882;28;20053;-90
2023/01/18 10:40:17;;;;;;;2.65;1.00;;;1.60;99.90;;;;;;4902466;29;20140;-90
2023/01/18 10:56:47;;;;;;;3.93;1.30;;;1.60;99.90;;;;;;4681256;26;20072;-90
2023/01/18 11:21:39;;;;;;;;;;;;;;;;;;;;;
2023/01/18 11:24:49;;;;;;;4.53;1.50;;;1.50;99.90;;;;;;5046865;28;20116;-90
2023/01/18 11:31:29;;;;;;;5.67;1.77;;;1.40;99.90;;;;;;4946539;28;20047;-92
2023/01/18 11:34:50;;;;;;;3.20;1.00;;;1.40;99.90;;;;;;4938840;28;20037;-91
2023/01/18 11:38:23;;;;;;;6.73;1.40;;;1.40;99.90;;;;;;4941090;29;20368;-91
2023/01/18 11:41:30;;;;;;;7.28;1.60;;;1.40;99.90;;;;;;4910622;29;20036;-91
2023/01/18 11:44:54;;;;;;;5.23;0.90;;;1.40;99.90;;;;;;4895029;29;20036;-91
2023/01/18 11:48:03;;;;;;;2.70;1.03;;;1.50;99.90;;;;;;4936447;29;20115;-91
2023/01/18 11:51:14;;;;;;;2.33;0.93;;;1.50;99.90;;;;;;4931878;29;20125;-90
2023/01/18 11:54:46;;;;;;;;;;;;;;;;;;;;;
2023/01/18 11:57:35;;;;;;;2.13;0.88;;;1.30;99.90;;;;;;4993784;28;20065;-90
2023/01/18 12:03:38;;;;;;;4.17;1.00;;;1.30;99.90;;;;;;5021838;28;20018;-91
2023/01/18 12:06:56;;;;;;;2.77;0.70;;;1.30;99.90;;;;;;5051761;28;20037;-91
2023/01/18 12:17:17;;;;;;;1.50;0.70;;;1.30;99.90;;;;;;5053771;28;20063;-90
2023/01/18 12:23:52;;;;;;;6.93;1.20;;;1.40;99.90;;;;;;4972824;28;20058;-90
2023/01/18 12:27:30;;;;;;;;;;;;;;;;;;;;;
2023/01/18 12:30:36;;;;;;;4.30;1.10;;;1.40;99.90;;;;;;4992681;28;20073;-91
2023/01/18 12:33:25;;;;;;;;;;;;;;;;;;;;;
2023/01/18 12:36:19;;;;;;;2.10;0.87;;;1.50;99.90;;;;;;5044114;28;20049;-92
2023/01/18 12:41:57;;;;;;;3.20;1.23;;;1.50;99.90;;;;;;5152765;22;20074;-89
2023/01/18 12:45:21;;;;;;;1.90;0.95;;;1.60;99.90;;;;;;5057120;28;20051;-91
2023/01/18 20:01:50;;;;;;;5.00;1.23;;;0.10;99.90;;;;;;767593;22;21604;-91
2023/01/18 20:04:59;;;;;;;3.97;1.23;;;0.10;99.90;;;;;;5017275;28;20200;-90
2023/01/18 20:07:55;;;;;;;3.57;1.50;;;0.10;99.90;;;;;;5007137;28;20105;-90
2023/01/18 20:10:39;;;;;;;3.33;1.27;;;0.10;99.90;;;;;;5005661;28;20029;-90
2023/01/18 20:13:50;;;;;;;4.03;1.30;;;0.10;99.90;;;;;;5005564;28;20035;-91
2023/01/18 20:16:26;;;;;;;3.90;1.60;;;0.10;99.90;;;;;;4993702;28;20040;-89
2023/01/18 20:19:18;;;;;;;2.87;1.17;;;0.00;99.90;;;;;;5001834;28;20045;-91
2023/01/18 20:21:55;;;;;;;4.37;1.20;;;-0.20;99.90;;;;;;5001830;28;20053;-92
2023/01/18 20:24:54;;;;;;;3.47;1.50;;;-0.30;99.90;;;;;;4998515;28;20042;-90
2023/01/18 20:27:45;;;;;;;6.80;1.40;;;-0.40;99.90;;;;;;4993130;28;20052;-91
2023/01/18 20:30:18;;;;;;;6.23;1.80;;;-0.40;99.90;;;;;;5004515;28;20025;-90
2023/01/18 20:32:44;;;;;;;;;;;-0.40;99.90;;;;;;5003623;28;20022;-90
2023/01/18 20:35:21;;;;;;;4.17;1.40;;;-0.40;99.90;;;;;;5008471;28;19968;-91
2023/01/18 20:37:59;;;;;;;3.70;1.40;;;-0.50;99.90;;;;;;4994856;28;20026;-91
2023/01/18 20:40:30;;;;;;;2.77;1.63;;;0.20;99.90;;;;;;4997339;28;20048;-91
2023/01/18 20:43:06;;;;;;;3.37;1.20;;;0.00;99.90;;;;;;4997333;28;20022;-92
2023/01/18 20:46:03;;;;;;;4.63;1.63;;;-0.40;99.90;;;;;;5005961;28;20022;-91
2023/01/18 20:48:45;;;;;;;3.77;1.50;;;-0.50;99.90;;;;;;4992930;28;20033;-91
2023/01/18 20:51:24;;;;;;;;;;;-0.30;99.90;;;;;;4994388;28;20018;-90
2023/01/18 20:54:02;;;;;;;3.47;1.40;;;-0.40;99.90;;;;;;4993504;28;19993;-91
2023/01/18 20:56:51;;;;;;;3.70;1.37;;;-0.50;99.90;;;;;;4984906;28;20078;-91
2023/01/18 20:59:48;;;;;;;5.40;1.97;;;-0.50;99.90;;;;;;4950698;28;20102;-91
2023/01/18 21:02:44;;;;;;;6.13;1.67;;;-0.50;99.90;;;;;;4962526;29;20027;-89
2023/01/18 21:05:12;;;;;;;4.83;1.80;;;-0.50;99.90;;;;;;4940077;29;20048;-88
2023/01/18 21:07:54;;;;;;;5.53;1.90;;;-0.60;99.90;;;;;;4941680;29;20023;-91
2023/01/18 21:10:37;;;;;;;4.17;1.77;;;-0.60;99.90;;;;;;4961540;28;20039;-92
2023/01/18 21:16:47;;;;;;;4.37;1.63;;;-0.80;99.90;;;;;;4955841;29;20056;-92
2023/01/18 21:19:27;;;;;;;5.80;1.83;;;-0.80;99.90;;;;;;4935651;28;20116;-91
2023/01/18 21:22:03;;;;;;;10.20;2.27;;;-0.70;99.90;;;;;;4945561;29;20043;-91
2023/01/18 21:24:37;;;;;;;6.13;2.20;;;-0.70;99.90;;;;;;4960787;28;20086;-90
2023/01/18 21:27:09;;;;;;;7.03;2.20;;;-0.50;99.90;;;;;;4941860;29;20059;-90
2023/01/18 21:29:53;;;;;;;10.02;2.42;;;-0.60;99.90;;;;;;4949516;28;20035;-91
2023/01/18 21:32:19;;;;;;;5.07;1.67;;;-0.50;99.90;;;;;;4984007;28;20034;-90
2023/01/18 21:34:51;;;;;;;5.73;1.87;;;-0.40;99.90;;;;;;4979040;28;20022;-91
2023/01/18 21:37:20;;;;;;;5.57;2.43;;;-0.40;99.90;;;;;;4999531;28;20581;-91
2023/01/18 21:39:47;;;;;;;5.83;2.13;;;-0.30;99.90;;;;;;4993176;28;20033;-91
2023/01/18 21:47:59;;;;;;;9.13;2.40;;;-0.30;99.90;;;;;;5001466;28;20044;-90
2023/01/18 21:56:15;;;;;;;7.30;2.50;;;-0.40;99.90;;;;;;5012067;28;20689;-90
2023/01/18 21:58:59;;;;;;;6.53;2.17;;;-0.30;99.90;;;;;;4996530;28;20030;-90
2023/01/18 22:01:38;;;;;;;4.70;1.80;;;-0.30;99.90;;;;;;4996708;28;20473;-90
2023/01/18 22:07:07;;;;;;;4.63;1.47;;;-0.40;99.90;;;;;;5008940;28;20068;-90
2023/01/18 22:10:04;;;;;;;;;;;;;;;;;;;;;
2023/01/18 22:12:37;;;;;;;4.80;2.30;;;-0.50;99.90;;;;;;5005935;28;20101;-90
2023/01/18 22:15:07;;;;;;;5.07;1.33;;;-0.50;99.90;;;;;;4995571;28;20026;-90
2023/01/18 22:17:41;;;;;;;6.87;1.73;;;-0.50;99.90;;;;;;4996148;28;20049;-90
2023/01/18 22:20:07;;;;;;;3.40;1.37;;;-0.40;99.90;;;;;;4994039;28;20030;-90
2023/01/18 22:22:40;;;;;;;4.63;1.40;;;-0.50;99.90;;;;;;5000320;28;20025;-90
2023/01/18 22:25:07;;;;;;;4.87;1.80;;;-0.70;99.90;;;;;;4999424;28;20052;-91
2023/01/18 22:27:38;;;;;;;6.03;2.03;;;-0.60;99.90;;;;;;4998707;28;20029;-90
2023/01/18 22:30:04;;;;;;;7.90;1.70;;;-0.80;99.90;;;;;;5009068;28;20061;-90
2023/01/18 22:32:33;;;;;;;4.47;1.40;;;-1.00;99.90;;;;;;4994319;28;20042;-89
2023/01/18 22:35:15;;;;;;;4.67;1.90;;;-0.80;99.90;;;;;;4990486;28;20034;-90
2023/01/18 22:37:41;;;;;;;7.80;1.73;;;-0.80;99.90;;;;;;5001125;28;20026;-91
2023/01/18 22:40:08;;;;;;;5.37;1.90;;;-0.70;99.90;;;;;;5010296;28;20030;-89
2023/01/18 22:42:47;;;;;;;5.67;1.50;;;-0.80;99.90;;;;;;5000145;28;20038;-89
2023/01/18 22:45:12;;;;;;;6.10;1.30;;;-0.80;99.90;;;;;;4997444;28;20118;-90
2023/01/18 22:47:38;;;;;;;6.03;1.67;;;-1.00;99.90;;;;;;4992268;28;20050;-90
2023/01/18 22:50:13;;;;;;;5.03;1.83;;;-0.80;99.90;;;;;;4997185;28;20038;-89
2023/01/18 22:52:40;;;;;;;6.10;1.70;;;-1.00;99.90;;;;;;5003910;28;20022;-89
2023/01/18 22:55:06;;;;;;;5.67;2.20;;;-1.00;99.90;;;;;;5000713;28;20101;-88
2023/01/18 22:57:41;;;;;;;4.23;1.73;;;-1.10;99.90;;;;;;5000566;28;20076;-89
2023/01/18 23:00:16;;;;;;;6.77;1.93;;;-1.00;99.90;;;;;;5004874;28;20086;-89
2023/01/18 23:02:48;;;;;;;4.67;1.70;;;-1.00;99.90;;;;;;5009770;28;20034;-89
2023/01/18 23:05:21;;;;;;;3.28;1.25;;;-1.10;99.90;;;;;;4999923;28;20030;-89
2023/01/18 23:07:51;;;;;;;4.80;1.50;;;-1.00;99.90;;;;;;5003123;28;20413;-90
2023/01/18 23:10:19;;;;;;;3.77;1.53;;;-1.00;99.90;;;;;;4991090;28;20023;-89
2023/01/18 23:12:51;;;;;;;5.73;2.20;;;-0.90;99.90;;;;;;4985151;28;20093;-88
2023/01/18 23:18:04;;;;;;;3.57;1.80;;;-1.00;99.90;;;;;;5002491;28;20407;-90
2023/01/18 23:20:30;;;;;;;5.60;1.60;;;-0.90;99.90;;;;;;4998203;28;20030;-89
2023/01/18 23:22:55;;;;;;;3.27;1.60;;;-1.00;99.90;;;;;;5000498;28;20105;-89
2023/01/18 23:25:24;;;;;;;5.47;1.60;;;-1.00;99.90;;;;;;5013462;28;20073;-90
2023/01/18 23:27:50;;;;;;;4.27;1.30;;;-1.00;99.90;;;;;;5004416;28;20018;-89
2023/01/18 23:30:19;;;;;;;4.17;2.10;;;-1.00;99.90;;;;;;5013172;28;20029;-89
2023/01/18 23:32:50;;;;;;;4.33;1.50;;;-1.10;99.90;;;;;;4999158;28;20031;-90
2023/01/18 23:35:18;;;;;;;4.30;1.40;;;-1.20;99.90;;;;;;4999603;28;20033;-89
2023/01/18 23:37:47;;;;;;;4.33;2.10;;;-1.10;99.90;;;;;;4996754;28;20053;-89
2023/01/18 23:54:16;;;;;;;3.77;1.67;;;-1.30;99.90;;;;;;5014857;28;20533;-89
2023/01/18 23:56:45;;;;;;;6.57;2.00;;;-1.30;99.90;;;;;;5002211;28;20030;-90
2023/01/18 23:59:12;;;;;;;4.53;2.17;;;-0.90;99.90;;;;;;5005078;28;20037;-89
